createdAt,value
2023-01-17T00:02:25.601Z,9.57
2023-01-17T00:04:52.327Z,9.58
2023-01-17T00:07:21.487Z,9.51
2023-01-17T00:09:48.247Z,9.47
2023-01-17T00:12:14.938Z,9.33
2023-01-17T00:14:43.002Z,9.32
2023-01-17T00:17:11.442Z,9.42
2023-01-17T00:19:38.221Z,9.48
2023-01-17T00:22:09.712Z,9.44
2023-01-17T00:24:36.351Z,9.40
2023-01-17T00:27:03.029Z,9.45
2023-01-17T00:29:29.668Z,9.34
2023-01-17T00:31:57.698Z,9.39
2023-01-17T00:34:24.374Z,9.46
2023-01-17T00:36:51.058Z,9.54
2023-01-17T00:39:17.775Z,9.60
2023-01-17T00:41:44.477Z,9.57
2023-01-17T00:44:11.155Z,9.40
2023-01-17T00:46:37.879Z,9.31
2023-01-17T00:49:06.321Z,9.41
2023-01-17T00:51:34.797Z,9.49
2023-01-17T00:54:01.801Z,9.52
2023-01-17T00:56:28.629Z,9.62
2023-01-17T00:58:55.272Z,9.48
2023-01-17T01:01:22.091Z,9.44
2023-01-17T01:03:48.879Z,9.44
2023-01-17T01:06:16.902Z,9.49
2023-01-17T01:08:43.555Z,9.62
2023-01-17T01:11:13.068Z,9.58
2023-01-17T01:13:39.879Z,9.46
2023-01-17T01:16:06.967Z,9.50
2023-01-17T01:18:33.671Z,9.49
2023-01-17T01:21:02.951Z,9.40
2023-01-17T01:23:31.032Z,9.25
2023-01-17T01:25:57.727Z,9.10
2023-01-17T01:28:26.260Z,9.10
2023-01-17T01:30:52.969Z,9.07
2023-01-17T01:33:19.841Z,9.02
2023-01-17T01:35:48.353Z,8.85
2023-01-17T01:38:15.563Z,8.83
2023-01-17T01:40:49.917Z,8.91
2023-01-17T01:43:19.276Z,9.08
2023-01-17T01:45:49.561Z,9.17
2023-01-17T01:48:35.802Z,9.15
2023-01-17T01:51:06.208Z,9.17
2023-01-17T01:53:40.151Z,9.21
2023-01-17T01:56:12.101Z,9.08
2023-01-17T01:58:40.316Z,9.05
2023-01-17T02:01:08.050Z,9.09
2023-01-17T02:03:38.028Z,9.00
2023-01-17T02:06:19.266Z,8.93
2023-01-17T02:08:46.196Z,8.88
2023-01-17T02:11:14.334Z,8.89
2023-01-17T02:13:41.720Z,8.99
2023-01-17T02:16:21.257Z,9.08
2023-01-17T02:18:56.317Z,9.08
2023-01-17T02:21:25.898Z,9.04
2023-01-17T02:24:30.223Z,9.03
2023-01-17T02:27:04.336Z,8.98
2023-01-17T02:30:18.780Z,8.84
2023-01-17T02:32:57.003Z,8.69
2023-01-17T02:35:33.398Z,8.72
2023-01-17T02:38:12.700Z,8.74
2023-01-17T02:40:45.382Z,8.87
2023-01-17T02:43:15.095Z,8.67
2023-01-17T02:45:42.264Z,8.78
2023-01-17T02:48:14.049Z,8.83
2023-01-17T02:51:00.215Z,8.66
2023-01-17T02:53:40.100Z,8.63
2023-01-17T02:56:18.635Z,8.56
2023-01-17T02:59:03.456Z,8.27
2023-01-17T03:01:40.154Z,8.10
2023-01-17T03:04:14.711Z,8.05
2023-01-17T03:06:46.217Z,8.02
2023-01-17T03:09:15.873Z,8.00
2023-01-17T03:11:43.062Z,7.94
2023-01-17T03:14:10.016Z,7.90
2023-01-17T03:16:36.817Z,7.88
2023-01-17T03:19:03.515Z,7.85
2023-01-17T03:21:31.739Z,7.81
2023-01-17T03:23:58.596Z,7.73
2023-01-17T03:26:25.327Z,7.70
2023-01-17T03:28:52.018Z,7.66
2023-01-17T03:31:18.994Z,7.62
2023-01-17T03:33:46.051Z,7.50
2023-01-17T03:36:12.780Z,7.50
2023-01-17T03:38:40.962Z,7.47
2023-01-17T03:41:07.803Z,7.38
2023-01-17T03:43:34.471Z,7.51
2023-01-17T03:46:05.840Z,7.58
2023-01-17T03:48:32.908Z,7.61
2023-01-17T03:51:00.110Z,7.50
2023-01-17T03:53:26.820Z,7.54
2023-01-17T03:55:55.029Z,7.42
2023-01-17T03:58:21.774Z,7.46
2023-01-17T04:00:48.491Z,7.53
2023-01-17T04:03:15.198Z,7.53
2023-01-17T04:05:41.872Z,7.52
2023-01-17T04:08:08.561Z,7.48
2023-01-17T04:10:35.484Z,7.53
2023-01-17T04:13:03.726Z,7.67
2023-01-17T04:15:30.514Z,7.66
2023-01-17T04:17:57.964Z,7.66
2023-01-17T04:20:31.776Z,7.82
2023-01-17T04:22:58.500Z,7.77
2023-01-17T04:25:25.675Z,7.77
2023-01-17T04:27:52.816Z,7.65
2023-01-17T04:30:21.089Z,7.66
2023-01-17T04:32:47.779Z,7.63
2023-01-17T04:35:14.697Z,7.54
2023-01-17T04:37:42.215Z,7.52
2023-01-17T04:40:10.669Z,7.58
2023-01-17T04:42:37.901Z,7.57
2023-01-17T04:45:05.483Z,7.47
2023-01-17T04:47:34.678Z,7.24
2023-01-17T04:50:01.403Z,7.11
2023-01-17T04:52:28.136Z,6.99
2023-01-17T04:54:54.907Z,6.95
2023-01-17T04:57:21.616Z,6.95
2023-01-17T04:59:48.337Z,6.93
2023-01-17T05:02:15.143Z,6.88
2023-01-17T05:04:43.198Z,6.80
2023-01-17T05:07:09.992Z,6.73
2023-01-17T05:09:37.010Z,6.75
2023-01-17T05:12:04.077Z,6.81
2023-01-17T05:14:30.792Z,6.88
2023-01-17T05:16:58.319Z,6.86
2023-01-17T05:19:26.889Z,6.92
2023-01-17T05:21:54.978Z,6.88
2023-01-17T05:24:21.795Z,6.87
2023-01-17T05:26:50.299Z,6.92
2023-01-17T05:29:17.148Z,6.86
2023-01-17T05:31:43.885Z,6.93
2023-01-17T05:34:12.685Z,7.08
2023-01-17T05:36:39.389Z,7.26
2023-01-17T05:39:07.765Z,7.34
2023-01-17T05:41:34.462Z,7.41
2023-01-17T05:44:01.152Z,7.51
2023-01-17T05:46:27.832Z,7.69
2023-01-17T05:48:54.554Z,7.79
2023-01-17T05:51:21.280Z,7.87
2023-01-17T05:53:47.976Z,7.93
2023-01-17T05:56:16.108Z,7.97
2023-01-17T05:58:42.750Z,8.06
2023-01-17T06:01:09.524Z,8.10
2023-01-17T06:03:36.269Z,8.16
2023-01-17T06:06:03.056Z,8.07
2023-01-17T06:08:29.818Z,8.06
2023-01-17T06:10:58.552Z,8.05
2023-01-17T06:13:26.605Z,7.97
2023-01-17T06:15:56.214Z,8.10
2023-01-17T06:18:25.791Z,8.22
2023-01-17T06:20:53.061Z,8.32
2023-01-17T06:23:19.884Z,8.21
2023-01-17T06:25:48.089Z,8.17
2023-01-17T06:28:17.184Z,8.22
2023-01-17T06:30:45.922Z,8.33
2023-01-17T06:33:13.449Z,8.48
2023-01-17T06:35:40.590Z,8.57
2023-01-17T06:38:09.155Z,8.62
2023-01-17T06:40:36.025Z,8.57
2023-01-17T06:43:03.868Z,8.58
2023-01-17T06:45:31.755Z,8.61
2023-01-17T06:48:00.173Z,8.64
2023-01-17T06:50:27.563Z,8.58
2023-01-17T06:52:56.040Z,8.58
2023-01-17T06:55:22.946Z,8.67
2023-01-17T06:57:49.651Z,8.63
2023-01-17T07:00:19.163Z,8.66
2023-01-17T07:02:48.966Z,8.65
2023-01-17T07:05:17.161Z,8.64
2023-01-17T07:07:44.429Z,8.66
2023-01-17T07:10:13.018Z,8.60
2023-01-17T07:12:39.769Z,8.58
2023-01-17T07:15:08.138Z,8.69
2023-01-17T07:17:35.463Z,8.67
2023-01-17T07:20:05.525Z,8.60
2023-01-17T07:22:33.640Z,8.56
2023-01-17T07:25:00.407Z,8.51
2023-01-17T07:27:29.166Z,8.56
2023-01-17T07:29:55.864Z,8.51
2023-01-17T07:32:22.707Z,8.22
2023-01-17T07:34:49.433Z,8.20
2023-01-17T07:37:16.197Z,8.46
2023-01-17T07:39:47.437Z,8.63
2023-01-17T07:42:14.232Z,8.64
2023-01-17T07:44:41.367Z,8.67
2023-01-17T07:47:08.156Z,8.66
2023-01-17T07:49:34.911Z,8.64
2023-01-17T07:52:01.622Z,8.64
2023-01-17T07:54:28.376Z,8.66
2023-01-17T07:56:56.533Z,8.61
2023-01-17T07:59:23.255Z,8.60
2023-01-17T08:01:50.057Z,8.64
2023-01-17T08:04:16.836Z,8.65
2023-01-17T08:06:44.863Z,8.65
2023-01-17T08:09:11.524Z,8.47
2023-01-17T08:11:38.172Z,8.46
2023-01-17T08:14:06.222Z,8.45
2023-01-17T08:16:32.977Z,8.41
2023-01-17T08:18:59.725Z,8.55
2023-01-17T08:21:26.430Z,8.69
2023-01-17T08:23:57.759Z,8.68
2023-01-17T08:26:24.545Z,8.50
2023-01-17T08:28:55.524Z,8.58
2023-01-17T08:31:24.127Z,8.47
2023-01-17T08:33:50.873Z,8.58
2023-01-17T08:36:17.602Z,8.65
2023-01-17T08:38:44.534Z,8.58
2023-01-17T08:41:11.258Z,8.65
2023-01-17T08:43:37.944Z,8.56
2023-01-17T08:46:04.831Z,8.55
2023-01-17T08:48:32.962Z,8.46
2023-01-17T08:51:00.899Z,8.58
2023-01-17T08:53:27.654Z,8.73
2023-01-17T08:55:58.275Z,8.72
2023-01-17T08:58:25.071Z,8.73
2023-01-17T09:00:51.937Z,8.69
2023-01-17T09:03:18.651Z,8.70
2023-01-17T09:05:46.766Z,8.74
2023-01-17T09:08:13.450Z,8.75
2023-01-17T09:10:40.196Z,8.79
2023-01-17T09:13:07.047Z,8.83
2023-01-17T09:15:33.718Z,8.81
2023-01-17T09:18:00.413Z,8.76
2023-01-17T09:20:27.175Z,8.79
2023-01-17T09:22:55.277Z,8.74
2023-01-17T09:25:21.971Z,8.73
2023-01-17T09:27:50.330Z,8.71
2023-01-17T09:30:17.711Z,8.77
2023-01-17T09:32:44.451Z,8.71
2023-01-17T09:35:11.107Z,8.82
2023-01-17T09:37:37.794Z,8.80
2023-01-17T09:40:07.592Z,8.85
2023-01-17T09:42:39.635Z,8.77
2023-01-17T09:45:16.742Z,8.96
2023-01-17T09:47:46.660Z,9.03
2023-01-17T09:50:26.533Z,9.07
2023-01-17T09:52:56.045Z,9.16
2023-01-17T09:55:24.329Z,9.10
2023-01-17T09:58:00.227Z,9.04
2023-01-17T10:00:46.804Z,9.17
2023-01-17T10:03:45.342Z,9.30
2023-01-17T10:06:22.221Z,9.30
2023-01-17T10:09:14.880Z,9.25
2023-01-17T10:11:55.367Z,9.19
2023-01-17T10:14:42.365Z,9.17
2023-01-17T10:17:19.217Z,9.18
2023-01-17T10:20:02.006Z,9.26
2023-01-17T10:22:44.760Z,9.22
2023-01-17T10:25:23.098Z,9.28
2023-01-17T10:27:57.584Z,9.32
2023-01-17T10:30:30.141Z,9.39
2023-01-17T10:33:02.209Z,9.39
2023-01-17T10:35:35.832Z,9.42
2023-01-17T10:38:10.120Z,9.49
2023-01-17T10:40:42.648Z,9.56
2023-01-17T10:43:18.273Z,9.67
2023-01-17T10:45:52.884Z,9.74
2023-01-17T10:48:35.819Z,9.69
2023-01-17T10:51:13.877Z,9.77
2023-01-17T10:53:54.748Z,9.81
2023-01-17T10:56:26.238Z,9.79
2023-01-17T10:59:07.612Z,9.86
2023-01-17T11:01:34.820Z,9.97
2023-01-17T11:04:02.229Z,9.98
2023-01-17T11:06:28.926Z,10.03
2023-01-17T11:08:56.944Z,10.04
2023-01-17T11:11:25.939Z,10.06
2023-01-17T11:13:54.607Z,10.03
2023-01-17T11:16:26.722Z,9.98
2023-01-17T11:19:11.962Z,9.94
2023-01-17T11:21:40.218Z,9.94
2023-01-17T11:24:15.405Z,10.02
2023-01-17T11:26:48.285Z,9.80
2023-01-17T11:29:23.233Z,9.89
2023-01-17T11:31:51.293Z,9.97
2023-01-17T11:34:23.417Z,10.15
2023-01-17T11:37:16.990Z,10.15
2023-01-17T11:39:44.460Z,10.07
2023-01-17T11:42:32.893Z,10.09
2023-01-17T11:45:24.151Z,10.15
2023-01-17T11:48:09.521Z,10.27
2023-01-17T11:50:37.795Z,10.39
2023-01-17T11:53:18.739Z,10.51
2023-01-17T11:56:04.466Z,10.57
2023-01-17T11:58:33.872Z,10.43
2023-01-17T12:01:16.476Z,10.70
2023-01-17T12:04:01.163Z,10.63
2023-01-17T12:06:56.024Z,10.68
2023-01-17T12:09:32.815Z,10.70
2023-01-17T12:12:08.965Z,10.62
2023-01-17T12:14:45.328Z,10.72
2023-01-17T12:17:28.048Z,10.76
2023-01-17T12:19:59.991Z,10.75
2023-01-17T12:22:52.816Z,10.70
2023-01-17T12:25:28.876Z,10.72
2023-01-17T12:28:17.986Z,10.71
2023-01-17T12:31:03.547Z,10.61
2023-01-17T12:33:41.932Z,10.66
2023-01-17T12:36:18.922Z,10.61
2023-01-17T12:38:48.101Z,10.71
2023-01-17T12:41:20.664Z,10.50
2023-01-17T12:43:47.959Z,10.49
2023-01-17T12:46:18.078Z,10.59
2023-01-17T12:48:45.511Z,10.55
2023-01-17T12:51:19.530Z,10.41
2023-01-17T12:53:55.866Z,10.32
2023-01-17T12:56:28.344Z,10.31
2023-01-17T12:59:05.283Z,10.26
2023-01-17T13:01:34.729Z,10.27
2023-01-17T13:04:21.071Z,10.47
2023-01-17T13:07:04.427Z,10.65
2023-01-17T13:09:38.297Z,10.70
2023-01-17T13:12:10.465Z,10.82
2023-01-17T13:14:37.191Z,10.87
2023-01-17T13:17:18.988Z,10.84
2023-01-17T13:19:51.734Z,10.81
2023-01-17T13:22:22.144Z,10.83
2023-01-17T13:24:58.887Z,10.87
2023-01-17T13:28:13.390Z,10.81
2023-01-17T13:31:04.705Z,10.99
2023-01-17T13:33:43.608Z,11.10
2023-01-17T13:36:28.570Z,11.09
2023-01-17T13:39:25.006Z,11.15
2023-01-17T13:41:53.807Z,11.18
2023-01-17T13:44:23.833Z,11.25
2023-01-17T13:46:59.549Z,11.17
2023-01-17T13:49:44.791Z,10.97
2023-01-17T13:52:33.096Z,10.84
2023-01-17T13:55:03.438Z,10.74
2023-01-17T13:57:39.141Z,10.73
2023-01-17T14:00:48.572Z,10.73
2023-01-17T14:03:35.390Z,10.85
2023-01-17T14:06:02.088Z,11.00
2023-01-17T14:08:29.555Z,11.38
2023-01-17T14:11:06.913Z,11.55
2023-01-17T14:13:37.527Z,11.49
2023-01-17T14:16:24.314Z,11.45
2023-01-17T14:18:52.844Z,11.42
2023-01-17T14:21:22.764Z,11.30
2023-01-17T14:24:01.591Z,11.04
2023-01-17T14:26:57.643Z,10.95
2023-01-17T14:29:46.157Z,10.77
2023-01-17T14:32:15.272Z,10.76
2023-01-17T14:34:44.421Z,10.81
2023-01-17T14:37:18.372Z,10.86
2023-01-17T14:39:46.247Z,11.02
2023-01-17T14:42:18.315Z,11.08
2023-01-17T14:44:47.763Z,11.15
2023-01-17T14:47:16.642Z,11.06
2023-01-17T14:49:43.963Z,10.83
2023-01-17T14:52:16.306Z,10.66
2023-01-17T14:54:50.452Z,10.45
2023-01-17T14:57:27.388Z,10.45
2023-01-17T15:00:09.698Z,10.39
2023-01-17T15:02:41.222Z,10.30
2023-01-17T15:05:14.484Z,10.23
2023-01-17T15:07:43.104Z,10.01
2023-01-17T15:10:15.880Z,10.02
2023-01-17T15:12:44.378Z,9.91
2023-01-17T15:15:27.852Z,10.00
2023-01-17T15:18:08.822Z,9.94
2023-01-17T15:20:37.730Z,9.83
2023-01-17T15:23:04.818Z,9.70
2023-01-17T15:25:31.701Z,9.65
2023-01-17T15:28:00.286Z,9.58
2023-01-17T15:30:30.031Z,9.55
2023-01-17T15:32:56.876Z,9.47
2023-01-17T15:35:23.759Z,9.41
2023-01-17T15:37:54.464Z,9.42
2023-01-17T15:40:23.026Z,9.41
2023-01-17T15:42:53.043Z,9.45
2023-01-17T15:45:26.961Z,9.42
2023-01-17T15:47:55.446Z,9.48
2023-01-17T15:50:30.964Z,9.41
2023-01-17T15:52:59.541Z,9.37
2023-01-17T15:55:32.413Z,9.37
2023-01-17T15:58:03.303Z,9.38
2023-01-17T16:00:37.609Z,9.37
2023-01-17T16:03:21.809Z,9.34
2023-01-17T16:05:49.563Z,9.35
2023-01-17T16:08:33.944Z,9.32
2023-01-17T16:11:02.731Z,9.30
2023-01-17T16:13:31.105Z,9.29
2023-01-17T16:16:14.045Z,9.24
2023-01-17T16:18:41.076Z,9.25
2023-01-17T16:21:19.753Z,9.27
2023-01-17T16:23:46.780Z,9.23
2023-01-17T16:26:13.416Z,9.20
2023-01-17T16:28:40.110Z,9.33
2023-01-17T16:31:06.979Z,9.47
2023-01-17T16:33:35.199Z,9.56
2023-01-17T16:36:01.947Z,9.61
2023-01-17T16:38:28.731Z,9.71
2023-01-17T16:40:55.405Z,9.77
2023-01-17T16:43:22.170Z,9.78
2023-01-17T16:45:50.784Z,9.83
2023-01-17T16:48:19.373Z,9.85
2023-01-17T16:50:48.868Z,9.89
2023-01-17T16:53:15.810Z,9.73
2023-01-17T16:55:43.444Z,9.61
2023-01-17T16:58:10.698Z,9.60
2023-01-17T17:00:37.453Z,9.50
2023-01-17T17:03:04.173Z,9.56
2023-01-17T17:05:30.867Z,9.54
2023-01-17T17:07:59.151Z,9.53
2023-01-17T17:10:26.136Z,9.58
2023-01-17T17:12:52.903Z,9.61
2023-01-17T17:15:19.694Z,9.60
2023-01-17T17:17:46.363Z,9.54
2023-01-17T17:20:15.192Z,9.46
2023-01-17T17:22:43.531Z,9.45
2023-01-17T17:25:12.178Z,9.44
2023-01-17T17:27:39.254Z,9.42
2023-01-17T17:30:07.159Z,9.50
2023-01-17T17:32:33.883Z,9.52
2023-01-17T17:35:00.614Z,9.59
2023-01-17T17:37:27.339Z,9.67
2023-01-17T17:39:54.156Z,9.69
2023-01-17T17:42:22.240Z,9.72
2023-01-17T17:44:49.131Z,9.75
2023-01-17T17:47:15.812Z,9.80
2023-01-17T17:49:42.551Z,9.86
2023-01-17T17:52:09.514Z,9.86
2023-01-17T17:54:36.568Z,9.86
2023-01-17T17:57:03.357Z,9.85
2023-01-17T17:59:31.436Z,9.84
2023-01-17T18:01:58.148Z,9.82
2023-01-17T18:04:25.157Z,9.89
2023-01-17T18:06:55.911Z,9.94
2023-01-17T18:09:22.613Z,9.78
2023-01-17T18:11:49.353Z,9.78
2023-01-17T18:14:16.203Z,9.74
2023-01-17T18:16:44.881Z,9.69
2023-01-17T18:19:14.059Z,9.61
2023-01-17T18:21:40.906Z,9.65
2023-01-17T18:24:10.592Z,9.62
2023-01-17T18:26:38.951Z,9.61
2023-01-17T18:29:07.663Z,9.67
2023-01-17T18:31:34.820Z,9.69
2023-01-17T18:34:05.491Z,9.57
2023-01-17T18:36:32.462Z,9.47
2023-01-17T18:38:59.250Z,9.46
2023-01-17T18:41:27.596Z,9.54
2023-01-17T18:43:54.983Z,9.59
2023-01-17T18:46:22.007Z,9.63
2023-01-17T18:48:49.112Z,9.63
2023-01-17T18:51:19.289Z,9.72
2023-01-17T18:53:46.491Z,9.70
2023-01-17T18:56:15.861Z,9.72
2023-01-17T18:58:45.140Z,9.71
2023-01-17T19:01:14.145Z,9.68
2023-01-17T19:03:42.887Z,9.70
2023-01-17T19:06:11.908Z,9.71
2023-01-17T19:08:41.413Z,9.75
2023-01-17T19:11:09.360Z,9.75
2023-01-17T19:13:37.767Z,9.80
2023-01-17T19:16:07.520Z,9.90
2023-01-17T19:18:35.701Z,9.94
2023-01-17T19:21:06.713Z,9.91
2023-01-17T19:23:34.164Z,9.85
2023-01-17T19:26:02.297Z,9.85
2023-01-17T19:28:34.160Z,9.80
2023-01-17T19:31:03.458Z,9.83
2023-01-17T19:33:30.138Z,9.73
2023-01-17T19:35:58.930Z,9.52
2023-01-17T19:38:25.673Z,9.43
2023-01-17T19:40:52.667Z,9.49
2023-01-17T19:43:20.701Z,9.51
2023-01-17T19:45:55.789Z,9.58
2023-01-17T19:48:22.589Z,9.44
2023-01-17T19:50:49.243Z,9.39
2023-01-17T19:53:16.355Z,9.41
2023-01-17T19:55:44.431Z,9.47
2023-01-17T19:58:13.069Z,9.35
2023-01-17T20:00:46.444Z,9.40
2023-01-17T20:03:13.561Z,9.51
2023-01-17T20:05:40.281Z,9.62
2023-01-17T20:08:07.006Z,9.60
2023-01-17T20:10:33.666Z,9.74
2023-01-17T20:13:00.381Z,9.83
2023-01-17T20:15:27.391Z,9.77
2023-01-17T20:17:55.792Z,9.82
2023-01-17T20:20:22.642Z,9.85
2023-01-17T20:22:49.394Z,9.93
2023-01-17T20:25:16.247Z,9.94
2023-01-17T20:27:42.952Z,9.89
2023-01-17T20:30:19.837Z,9.84
2023-01-17T20:32:49.876Z,9.82
2023-01-17T20:35:18.024Z,9.82
2023-01-17T20:37:44.706Z,9.82
2023-01-17T20:40:12.573Z,9.73
2023-01-17T20:42:39.302Z,9.73
2023-01-17T20:45:06.983Z,9.61
2023-01-17T20:47:33.642Z,9.64
2023-01-17T20:50:00.398Z,9.50
2023-01-17T20:52:28.620Z,9.44
2023-01-17T20:54:55.420Z,9.34
2023-01-17T20:57:22.101Z,9.39
2023-01-17T20:59:48.919Z,9.39
2023-01-17T21:02:18.885Z,9.23
2023-01-17T21:04:45.671Z,9.32
2023-01-17T21:07:12.343Z,9.37
2023-01-17T21:09:40.488Z,9.47
2023-01-17T21:12:07.223Z,9.50
2023-01-17T21:14:33.988Z,9.51
2023-01-17T21:17:00.733Z,9.50
2023-01-17T21:19:27.586Z,9.49
2023-01-17T21:21:54.242Z,9.52
2023-01-17T21:24:21.019Z,9.47
2023-01-17T21:26:49.136Z,9.47
2023-01-17T21:29:15.785Z,9.40
2023-01-17T21:31:42.529Z,9.39
2023-01-17T21:34:10.782Z,9.33
2023-01-17T21:36:38.884Z,9.30
2023-01-17T21:39:10.193Z,9.31
2023-01-17T21:41:38.960Z,9.46
2023-01-17T21:44:11.459Z,9.42
2023-01-17T21:46:39.856Z,9.45
2023-01-17T21:49:07.917Z,9.43
2023-01-17T21:51:34.671Z,9.50
2023-01-17T21:54:01.422Z,9.40
2023-01-17T21:56:28.121Z,9.54
2023-01-17T21:58:57.176Z,9.51
2023-01-17T22:01:26.894Z,9.46
2023-01-17T22:03:56.000Z,9.50
2023-01-17T22:06:24.968Z,9.49
2023-01-17T22:08:51.724Z,9.71
2023-01-17T22:11:21.218Z,9.61
2023-01-17T22:13:48.189Z,9.71
2023-01-17T22:16:17.370Z,9.76
2023-01-17T22:18:48.535Z,9.62
2023-01-17T22:21:16.662Z,9.71
2023-01-17T22:23:45.851Z,9.69
2023-01-17T22:26:12.582Z,9.50
2023-01-17T22:28:40.041Z,9.61
2023-01-17T22:31:09.211Z,9.69
2023-01-17T22:33:36.454Z,9.63
2023-01-17T22:36:05.152Z,9.44
2023-01-17T22:38:32.188Z,9.34
2023-01-17T22:41:03.607Z,9.51
2023-01-17T22:43:30.230Z,9.60
2023-01-17T22:45:58.912Z,9.53
2023-01-17T22:48:25.712Z,9.45
2023-01-17T22:50:57.146Z,9.46
2023-01-17T22:53:25.355Z,9.46
2023-01-17T22:55:59.247Z,9.54
2023-01-17T22:58:26.019Z,9.57
2023-01-17T23:00:52.948Z,9.65
2023-01-17T23:03:19.760Z,9.64
2023-01-17T23:05:46.544Z,9.64
2023-01-17T23:08:13.242Z,9.70
2023-01-17T23:10:43.027Z,9.81
2023-01-17T23:13:09.786Z,9.83
2023-01-17T23:15:37.860Z,9.88
2023-01-17T23:18:04.730Z,9.94
2023-01-17T23:20:31.539Z,9.94
2023-01-17T23:22:58.573Z,10.03
2023-01-17T23:25:25.585Z,10.06
2023-01-17T23:27:53.739Z,10.03
2023-01-17T23:30:22.630Z,10.05
2023-01-17T23:32:51.432Z,10.10
2023-01-17T23:35:20.384Z,9.98
2023-01-17T23:37:47.583Z,9.95
2023-01-17T23:40:14.626Z,9.86
2023-01-17T23:42:41.783Z,9.25
2023-01-17T23:45:10.626Z,9.69
2023-01-17T23:47:37.299Z,9.77
2023-01-17T23:50:04.602Z,9.62
2023-01-17T23:52:31.253Z,9.39
2023-01-17T23:54:57.934Z,9.43
2023-01-17T23:57:24.760Z,9.46
2023-01-17T23:59:51.412Z,9.30
